CheckWX is a tool to help pilots better visualize weather data.  It is not intended as a substitute for an official pre-flight weather briefing.

19:55:04 UTC

KOMH METAR
Orange County Airport
Orange, Virginia, USA
Current

20 mins ago

KOMH 211935Z AUTO 16006KT 10SM SCT055 31/17 A3017 RMK AO2
Observed
Sep-21 @ 19:35 UTC
Wind
  • 160° at 6 KTS
Visibility
10 SM
Flight Rules
VFR
Cloud Levels
  • Scattered at 5,500' AGL
Temperature
31°C / 88°F
Dewpoint
17°C / 63°F
Heat Index
32°C / 89°F
Humidity
43%
Altimeter
30.17" Hg
Pressure
1021.72 hPa
Previous

40 mins ago

KOMH 211915Z AUTO 18003KT 10SM SCT055 31/17 A3018 RMK AO2
Observed
Sep-21 @ 19:15 UTC
Wind
  • 180° at 3 KTS
Visibility
10 SM
Flight Rules
VFR
Cloud Levels
  • Scattered at 5,500' AGL
Temperature
31°C / 88°F
Dewpoint
17°C / 63°F
Heat Index
32°C / 89°F
Humidity
43%
Altimeter
30.18" Hg
Pressure
1022.02 hPa
Previous

1 hour ago

KOMH 211835Z AUTO 00000KT 10SM CLR 30/17 A3019 RMK AO2
Observed
Sep-21 @ 18:35 UTC
Visibility
10 SM
Flight Rules
VFR
Cloud Levels
  • Clear skies
Temperature
30°C / 86°F
Dewpoint
17°C / 63°F
Heat Index
31°C / 87°F
Humidity
46%
Altimeter
30.19" Hg
Pressure
1022.32 hPa